Time;durP1;ratioP1;P1;durP2;ratioP2;P2;SDS_P1;SDS_P2;PMS_P1;PMS_P2;Temp;Humidity;BMP_temperature;BMP_pressure;BME280_temperature;BME280_humidity;BME280_pressure;Samples;Min_cycle;Max_cycle;Signal;HPM_P1;HPM_P2
2023/08/01 00:00:08;;;;;;;130.27;83.22;;;26.50;99.90;;;;;;5094412;28;20043;-67
2023/08/01 00:02:34;;;;;;;158.98;103.28;;;26.50;99.90;;;;;;5094239;28;20054;-66
2023/08/01 00:05:01;;;;;;;91.10;64.40;;;26.50;99.90;;;;;;5094510;28;20051;-67
2023/08/01 00:07:29;;;;;;;81.32;56.65;;;26.50;99.90;;;;;;5094465;28;20016;-67
2023/08/01 00:09:55;;;;;;;80.10;52.53;;;26.50;99.90;;;;;;5094388;28;20508;-66
2023/08/01 00:12:24;;;;;;;146.25;117.25;;;26.50;99.90;;;;;;5094647;28;20035;-67
2023/08/01 00:14:50;;;;;;;66.72;46.03;;;26.50;99.90;;;;;;5094509;28;20046;-66
2023/08/01 00:17:17;;;;;;;170.50;150.45;;;26.50;99.90;;;;;;5094242;28;20043;-66
2023/08/01 00:19:43;;;;;;;437.17;361.33;;;26.60;99.90;;;;;;5094303;28;20028;-66
2023/08/01 00:22:10;;;;;;;119.32;90.43;;;26.70;99.90;;;;;;5074986;28;20025;-67
2023/08/01 00:24:37;;;;;;;607.35;542.10;;;26.80;99.90;;;;;;5073710;28;20020;-68
2023/08/01 00:27:04;;;;;;;69.47;46.22;;;26.80;99.90;;;;;;5073889;28;20059;-67
2023/08/01 00:29:31;;;;;;;62.30;44.03;;;26.90;99.90;;;;;;5073750;28;20451;-66
2023/08/01 00:31:57;;;;;;;89.35;64.80;;;27.00;99.90;;;;;;5073579;28;20071;-67
2023/08/01 00:34:24;;;;;;;101.63;66.00;;;27.10;99.90;;;;;;5073598;28;20040;-69
2023/08/01 00:36:50;;;;;;;70.20;51.35;;;27.10;99.90;;;;;;5073601;28;20048;-67
2023/08/01 00:39:17;;;;;;;74.97;49.03;;;27.10;99.90;;;;;;5073453;28;20028;-67
2023/08/01 00:41:43;;;;;;;71.05;49.40;;;27.10;99.90;;;;;;5073651;28;20017;-67
2023/08/01 00:44:10;;;;;;;66.05;45.08;;;27.10;99.90;;;;;;5073441;28;20033;-66
2023/08/01 00:46:37;;;;;;;74.60;53.22;;;27.20;99.90;;;;;;5073316;28;20029;-67
2023/08/01 00:49:04;;;;;;;67.72;46.92;;;27.20;99.90;;;;;;5073433;28;20471;-66
2023/08/01 00:51:32;;;;;;;142.82;111.35;;;27.20;99.90;;;;;;5073460;28;20086;-70
2023/08/01 00:54:00;;;;;;;1472.65;999.90;;;27.20;99.90;;;;;;5072921;28;20028;-67
2023/08/01 00:56:27;;;;;;;410.70;369.35;;;27.20;99.90;;;;;;5073499;28;20082;-67
2023/08/01 00:58:53;;;;;;;327.92;293.20;;;27.20;99.90;;;;;;5073586;28;20017;-67
2023/08/01 01:01:20;;;;;;;630.55;563.28;;;27.30;99.90;;;;;;5073027;28;20046;-67
2023/08/01 01:03:50;;;;;;;1380.60;999.90;;;27.30;99.90;;;;;;5073292;28;20041;-67
2023/08/01 01:06:34;;;;;;;335.45;300.65;;;27.40;99.90;;;;;;5073233;28;20028;-67
2023/08/01 01:09:00;;;;;;;51.35;33.55;;;27.50;99.90;;;;;;5073245;28;20021;-66
2023/08/01 01:11:27;;;;;;;58.45;34.40;;;27.60;99.90;;;;;;5073555;28;20522;-69
2023/08/01 01:13:54;;;;;;;413.95;361.90;;;27.60;99.90;;;;;;5072928;28;20032;-67
2023/08/01 01:16:21;;;;;;;1310.10;999.90;;;27.70;99.90;;;;;;5073207;28;20027;-67
2023/08/01 01:18:47;;;;;;;1091.72;976.40;;;27.70;99.90;;;;;;5073469;28;20033;-66
2023/08/01 01:21:32;;;;;;;1022.90;907.72;;;27.80;99.90;;;;;;5072991;28;20024;-66
2023/08/01 01:24:00;;;;;;;1613.68;999.90;;;27.90;99.90;;;;;;5073229;28;20020;-67
2023/08/01 01:26:27;;;;;;;1621.90;999.90;;;28.00;99.90;;;;;;5073051;28;20027;-67
2023/08/01 01:28:55;;;;;;;937.47;804.15;;;28.00;99.90;;;;;;5073026;28;20071;-67
2023/08/01 01:31:21;;;;;;;390.02;333.75;;;28.10;99.90;;;;;;5073046;28;20082;-66
2023/08/01 01:33:48;;;;;;;246.88;221.05;;;28.10;99.90;;;;;;5072848;28;20082;-66
2023/08/01 01:36:15;;;;;;;541.45;480.50;;;28.20;99.90;;;;;;5073169;28;20033;-67
2023/08/01 01:38:41;;;;;;;258.23;228.95;;;28.30;99.90;;;;;;5073172;28;20021;-66
2023/08/01 01:41:08;;;;;;;163.25;138.48;;;28.40;99.90;;;;;;5072883;28;20036;-67
2023/08/01 01:43:35;;;;;;;139.48;82.78;;;28.50;99.90;;;;;;5072928;28;20524;-66
2023/08/01 01:46:01;;;;;;;244.65;207.45;;;28.60;99.90;;;;;;5073008;28;20077;-68
2023/08/01 01:48:28;;;;;;;275.92;238.43;;;28.70;99.90;;;;;;5089914;28;20484;-67
2023/08/01 01:50:54;;;;;;;558.17;499.52;;;28.70;99.90;;;;;;5093032;28;20028;-67
2023/08/01 01:53:21;;;;;;;730.30;652.50;;;28.80;99.90;;;;;;5093123;28;20139;-69
2023/08/01 01:55:47;;;;;;;88.03;51.42;;;28.80;99.90;;;;;;5093043;28;20024;-69
2023/08/01 01:58:14;;;;;;;114.10;81.78;;;28.90;99.90;;;;;;5092908;28;20027;-68
2023/08/01 02:00:41;;;;;;;628.08;520.53;;;29.00;99.90;;;;;;5092861;28;20097;-68
2023/08/01 02:03:10;;;;;;;161.90;122.32;;;29.00;99.90;;;;;;5092860;28;20077;-69
2023/08/01 02:05:37;;;;;;;166.45;137.02;;;29.00;99.90;;;;;;5095403;28;20016;-69
2023/08/01 02:08:04;;;;;;;97.57;70.95;;;29.10;99.90;;;;;;5097014;28;20024;-69
2023/08/01 02:10:31;;;;;;;26.65;18.75;;;29.10;99.90;;;;;;5096612;28;20028;-70
2023/08/01 02:12:57;;;;;;;28.33;19.10;;;29.20;99.90;;;;;;5096543;28;20428;-69
2023/08/01 02:15:24;;;;;;;25.45;17.77;;;29.20;99.90;;;;;;5096631;28;20464;-69
2023/08/01 02:17:51;;;;;;;30.30;17.40;;;29.30;99.90;;;;;;5096573;28;20039;-70
2023/08/01 02:20:17;;;;;;;39.78;22.70;;;29.30;99.90;;;;;;5096545;28;20024;-70
2023/08/01 02:22:44;;;;;;;38.97;19.08;;;29.40;99.90;;;;;;5096475;28;20020;-70
2023/08/01 02:25:11;;;;;;;50.83;26.27;;;29.40;99.90;;;;;;5089111;28;20044;-70
2023/08/01 02:27:37;;;;;;;48.20;25.63;;;29.50;99.90;;;;;;5076750;28;20064;-69
2023/08/01 02:30:05;;;;;;;85.70;50.80;;;29.60;99.90;;;;;;5076073;28;20066;-69
2023/08/01 02:32:31;;;;;;;98.22;56.45;;;29.60;99.90;;;;;;5076066;28;20499;-70
2023/08/01 02:34:58;;;;;;;59.75;37.92;;;29.60;99.90;;;;;;5075891;28;20385;-69
2023/08/01 02:37:24;;;;;;;71.63;43.63;;;29.60;99.90;;;;;;5076168;28;20016;-68
2023/08/01 02:39:51;;;;;;;32.17;22.25;;;29.60;99.90;;;;;;5075916;28;20024;-69
2023/08/01 02:42:18;;;;;;;101.03;64.63;;;29.60;99.90;;;;;;5075807;28;20074;-68
2023/08/01 02:44:45;;;;;;;52.13;32.28;;;29.70;99.90;;;;;;5075893;28;20027;-69
2023/08/01 02:47:11;;;;;;;55.95;31.90;;;29.80;99.90;;;;;;5075871;28;20059;-69
2023/08/01 02:49:37;;;;;;;162.70;107.60;;;29.80;99.90;;;;;;5075633;28;20021;-68
2023/08/01 02:52:04;;;;;;;47.95;28.75;;;29.70;99.90;;;;;;5078431;28;20477;-68
2023/08/01 02:54:31;;;;;;;51.28;21.88;;;29.80;99.90;;;;;;5091377;28;20117;-65
2023/08/01 02:57:00;;;;;;;24.80;14.45;;;29.90;99.90;;;;;;5095809;28;20020;-66
2023/08/01 02:59:27;;;;;;;27.60;15.75;;;29.90;99.90;;;;;;5095881;28;20051;-66
2023/08/01 03:01:53;;;;;;;28.85;15.93;;;30.10;99.90;;;;;;5078646;28;20432;-65
2023/08/01 03:04:20;;;;;;;51.53;30.98;;;30.10;99.90;;;;;;5075331;28;20025;-68
2023/08/01 03:06:46;;;;;;;34.70;18.95;;;30.00;99.90;;;;;;5075569;28;20017;-65
2023/08/01 03:09:13;;;;;;;22.52;15.57;;;30.00;99.90;;;;;;5075426;28;20021;-65
2023/08/01 03:11:39;;;;;;;22.70;14.07;;;30.00;99.90;;;;;;5074222;28;20468;-66
2023/08/01 03:14:06;;;;;;;34.30;18.73;;;30.00;99.90;;;;;;5073277;28;20028;-66
2023/08/01 03:16:33;;;;;;;31.45;18.67;;;30.00;99.90;;;;;;5073504;28;20377;-66
2023/08/01 03:19:04;;;;;;;36.00;16.13;;;30.00;99.90;;;;;;5074787;28;20052;-65
2023/08/01 03:21:33;;;;;;;35.50;22.48;;;30.00;99.90;;;;;;5074796;28;20024;-66
2023/08/01 03:24:01;;;;;;;109.90;68.47;;;30.00;99.90;;;;;;5074861;28;20107;-67
2023/08/01 03:26:28;;;;;;;147.90;88.18;;;30.10;99.90;;;;;;5074735;28;20024;-66
2023/08/01 03:28:55;;;;;;;23.98;14.48;;;30.20;99.90;;;;;;5074962;28;20027;-66
2023/08/01 03:31:24;;;;;;;25.73;13.95;;;30.20;99.90;;;;;;5074982;28;20020;-66
2023/08/01 03:33:51;;;;;;;25.35;12.00;;;30.20;99.90;;;;;;5074838;28;20464;-66
2023/08/01 03:36:17;;;;;;;26.25;11.73;;;30.20;99.90;;;;;;5074841;28;20112;-68
2023/08/01 03:38:44;;;;;;;20.90;11.38;;;30.30;99.90;;;;;;5078353;28;20441;-66
2023/08/01 03:41:10;;;;;;;25.90;12.73;;;30.30;99.90;;;;;;5082773;28;20028;-70
2023/08/01 03:43:37;;;;;;;17.90;11.23;;;30.40;99.90;;;;;;5077974;28;20111;-68
2023/08/01 03:46:04;;;;;;;20.35;11.65;;;30.40;99.90;;;;;;5082398;28;20508;-69
2023/08/01 03:48:31;;;;;;;22.25;12.18;;;30.40;99.90;;;;;;5076784;28;20032;-70
2023/08/01 03:50:58;;;;;;;19.55;11.70;;;30.50;99.90;;;;;;5085945;28;20024;-67
2023/08/01 03:53:24;;;;;;;19.35;12.45;;;30.60;99.90;;;;;;5089639;28;20473;-66
2023/08/01 03:55:51;;;;;;;25.20;11.20;;;30.70;99.90;;;;;;5083293;28;20020;-66
2023/08/01 03:58:17;;;;;;;55.90;27.50;;;30.80;99.90;;;;;;5076712;28;20036;-66
2023/08/01 04:00:45;;;;;;;29.95;14.20;;;30.90;99.90;;;;;;5082781;28;20071;-70
2023/08/01 04:03:12;;;;;;;23.13;13.43;;;30.90;99.90;;;;;;5076537;28;20036;-67
2023/08/01 04:05:39;;;;;;;19.88;11.18;;;31.00;99.90;;;;;;5083007;28;20035;-70
2023/08/01 04:08:05;;;;;;;22.38;13.98;;;31.00;99.90;;;;;;5076559;28;20012;-67
2023/08/01 04:10:32;;;;;;;28.58;14.35;;;31.00;99.90;;;;;;5083733;28;20492;-66
2023/08/01 04:12:58;;;;;;;20.55;11.55;;;31.10;99.90;;;;;;5083466;28;20020;-67
2023/08/01 04:15:25;;;;;;;20.58;11.80;;;31.20;99.90;;;;;;5083337;28;20037;-67
2023/08/01 04:17:51;;;;;;;22.20;11.73;;;31.30;99.90;;;;;;5074692;28;20028;-68
2023/08/01 04:20:18;;;;;;;21.73;11.70;;;31.40;99.90;;;;;;5084295;28;20051;-67
2023/08/01 04:22:44;;;;;;;21.15;10.25;;;31.50;99.90;;;;;;5073895;28;20028;-69
2023/08/01 04:25:11;;;;;;;21.35;10.45;;;31.60;99.90;;;;;;5085030;28;20024;-69
2023/08/01 04:27:37;;;;;;;14.20;9.90;;;31.60;99.90;;;;;;5072940;28;20058;-67
2023/08/01 04:30:04;;;;;;;18.52;10.68;;;31.60;99.90;;;;;;5082082;28;20030;-68
2023/08/01 04:32:31;;;;;;;33.97;20.55;;;31.60;99.90;;;;;;5093732;28;20020;-68
2023/08/01 04:34:58;;;;;;;17.50;9.38;;;31.70;99.90;;;;;;5088137;28;20399;-67
2023/08/01 04:37:25;;;;;;;38.88;12.95;;;31.70;99.90;;;;;;5093467;28;20480;-67
2023/08/01 04:39:52;;;;;;;21.92;12.23;;;31.60;99.90;;;;;;5087760;28;20070;-68
2023/08/01 04:42:18;;;;;;;26.88;15.48;;;31.50;99.90;;;;;;5093040;28;20035;-68
2023/08/01 04:44:45;;;;;;;19.20;11.40;;;31.50;99.90;;;;;;5086769;28;20385;-68
2023/08/01 04:47:13;;;;;;;19.25;10.63;;;31.50;99.90;;;;;;5083371;28;20384;-68
2023/08/01 04:49:40;;;;;;;23.88;11.75;;;31.50;99.90;;;;;;5087920;28;20020;-67
2023/08/01 04:52:07;;;;;;;26.50;12.75;;;31.40;99.90;;;;;;5073745;28;20029;-68
2023/08/01 04:54:33;;;;;;;97.53;62.35;;;31.40;99.90;;;;;;5083431;28;20472;-68
2023/08/01 04:57:00;;;;;;;32.90;15.25;;;31.50;99.90;;;;;;5074421;28;20028;-69
2023/08/01 04:59:26;;;;;;;48.58;34.05;;;31.60;99.90;;;;;;5082267;28;20020;-70
2023/08/01 05:01:53;;;;;;;24.55;13.90;;;31.70;99.90;;;;;;5075262;28;20041;-68
2023/08/01 05:04:19;;;;;;;45.00;29.98;;;31.70;99.90;;;;;;5080955;28;20054;-71
2023/08/01 05:06:46;;;;;;;17.15;10.30;;;31.90;99.90;;;;;;5076647;28;20086;-67
2023/08/01 05:09:12;;;;;;;18.88;9.48;;;32.10;99.90;;;;;;5079919;28;20058;-70
2023/08/01 05:11:39;;;;;;;18.73;9.05;;;32.10;99.90;;;;;;5077855;28;20033;-68
2023/08/01 05:14:05;;;;;;;46.10;30.88;;;32.10;99.90;;;;;;5078171;28;20036;-72
2023/08/01 05:16:32;;;;;;;159.93;112.65;;;31.90;99.90;;;;;;5080297;28;20056;-71
2023/08/01 05:18:58;;;;;;;89.70;58.50;;;31.90;99.90;;;;;;5077452;28;20427;-69
2023/08/01 05:21:26;;;;;;;29.08;17.48;;;31.80;99.90;;;;;;5087026;28;20544;-68
2023/08/01 05:23:52;;;;;;;23.15;10.60;;;31.80;99.90;;;;;;5076315;28;20043;-69
2023/08/01 05:26:19;;;;;;;18.63;9.40;;;31.80;99.90;;;;;;5105285;22;20112;-66
2023/08/01 05:28:45;;;;;;;18.40;10.45;;;31.70;99.90;;;;;;5087395;28;20033;-67
2023/08/01 05:31:12;;;;;;;19.27;11.27;;;31.70;99.90;;;;;;5082268;28;20016;-68
2023/08/01 05:33:38;;;;;;;23.88;10.52;;;31.70;99.90;;;;;;5075969;28;20598;-68
2023/08/01 05:36:05;;;;;;;16.15;8.68;;;31.80;99.90;;;;;;5082150;28;20025;-67
2023/08/01 05:38:31;;;;;;;13.70;9.13;;;31.90;99.90;;;;;;5076377;28;20116;-69
2023/08/01 05:40:58;;;;;;;15.27;9.15;;;31.90;99.90;;;;;;5085927;28;20026;-69
2023/08/01 05:43:24;;;;;;;24.42;9.85;;;32.20;99.90;;;;;;5079195;28;20513;-73
2023/08/01 05:45:51;;;;;;;16.20;9.68;;;32.30;99.90;;;;;;5094148;28;20082;-69
2023/08/01 05:48:18;;;;;;;20.67;9.93;;;32.20;99.90;;;;;;5096211;28;20017;-67
2023/08/01 05:50:44;;;;;;;18.27;9.68;;;32.20;99.90;;;;;;5077407;28;20377;-67
2023/08/01 05:53:11;;;;;;;14.13;9.35;;;32.20;99.90;;;;;;5091888;28;20024;-70
2023/08/01 05:55:37;;;;;;;21.45;9.35;;;32.10;99.90;;;;;;5097842;28;20524;-65
2023/08/01 05:58:04;;;;;;;44.67;28.25;;;32.10;99.90;;;;;;5097271;28;20032;-65
2023/08/01 06:00:30;;;;;;;18.65;9.60;;;32.10;99.90;;;;;;5097343;28;20027;-66
2023/08/01 06:02:57;;;;;;;18.15;9.13;;;32.00;99.90;;;;;;5097233;28;20112;-65
2023/08/01 06:05:23;;;;;;;14.13;8.88;;;32.10;99.90;;;;;;5096777;28;20095;-64
2023/08/01 06:07:50;;;;;;;17.38;9.13;;;32.30;99.90;;;;;;5096604;28;20074;-66
2023/08/01 06:10:16;;;;;;;17.05;8.30;;;32.40;99.90;;;;;;5097149;28;20469;-69
2023/08/01 06:12:43;;;;;;;14.90;9.70;;;32.30;99.90;;;;;;5096831;28;20504;-65
2023/08/01 06:15:10;;;;;;;16.92;9.93;;;32.30;99.90;;;;;;5095902;28;20119;-64
2023/08/01 06:17:36;;;;;;;17.58;9.30;;;32.30;99.90;;;;;;5094835;28;20040;-65
2023/08/01 06:20:04;;;;;;;12.27;8.35;;;32.30;99.90;;;;;;5095981;28;20120;-64
2023/08/01 06:22:31;;;;;;;15.15;8.43;;;32.40;99.90;;;;;;5096228;28;20036;-65
2023/08/01 06:24:57;;;;;;;21.02;9.30;;;32.30;99.90;;;;;;5096440;28;20024;-67
2023/08/01 06:27:25;;;;;;;16.80;9.00;;;32.30;99.90;;;;;;5096418;28;20398;-65
2023/08/01 06:29:51;;;;;;;16.60;9.10;;;32.30;99.90;;;;;;5096634;28;20028;-65
2023/08/01 06:32:18;;;;;;;19.75;8.30;;;32.30;99.90;;;;;;5096668;28;20499;-66
2023/08/01 06:34:44;;;;;;;16.30;8.73;;;32.30;99.90;;;;;;5093894;28;20031;-63
2023/08/01 06:37:11;;;;;;;15.90;9.00;;;32.30;99.90;;;;;;5095896;28;20091;-64
2023/08/01 06:39:37;;;;;;;18.48;9.43;;;32.20;99.90;;;;;;5093632;28;20035;-65
2023/08/01 06:42:04;;;;;;;18.25;10.00;;;32.30;99.90;;;;;;5084969;28;20033;-65
2023/08/01 06:44:31;;;;;;;15.30;8.48;;;32.30;99.90;;;;;;5075996;28;20020;-65
2023/08/01 06:46:57;;;;;;;17.45;9.90;;;32.50;99.90;;;;;;5076155;28;20024;-65
2023/08/01 06:49:24;;;;;;;21.60;14.43;;;32.60;99.90;;;;;;5076138;28;20473;-65
2023/08/01 06:51:50;;;;;;;21.90;14.52;;;32.60;99.90;;;;;;5075078;28;20035;-65
2023/08/01 06:54:17;;;;;;;19.15;11.55;;;32.50;99.90;;;;;;5076503;28;20024;-63
2023/08/01 06:56:47;;;;;;;69.57;53.58;;;32.50;99.90;;;;;;5076328;28;20021;-64
2023/08/01 06:59:16;;;;;;;18.15;11.73;;;32.50;99.90;;;;;;5076145;28;20082;-63
2023/08/01 07:01:43;;;;;;;13.50;9.23;;;32.70;99.90;;;;;;5076259;28;20031;-63
2023/08/01 07:04:11;;;;;;;15.68;9.02;;;32.80;99.90;;;;;;5076060;28;20023;-65
2023/08/01 07:06:38;;;;;;;14.32;8.98;;;32.90;99.90;;;;;;5085248;28;20150;-63
2023/08/01 07:09:05;;;;;;;15.05;9.30;;;32.90;99.90;;;;;;5095862;28;20028;-65
2023/08/01 07:11:31;;;;;;;18.33;8.95;;;33.00;99.90;;;;;;5095634;28;20024;-65
2023/08/01 07:13:58;;;;;;;16.48;8.05;;;32.80;99.90;;;;;;5095879;28;20028;-63
2023/08/01 07:16:25;;;;;;;17.73;9.27;;;32.80;99.90;;;;;;5092444;28;20024;-63
2023/08/01 07:18:52;;;;;;;322.27;258.83;;;32.80;99.90;;;;;;5094902;28;20086;-67
2023/08/01 07:21:18;;;;;;;15.30;10.18;;;32.70;99.90;;;;;;5094810;28;20358;-69
2023/08/01 07:23:45;;;;;;;17.27;9.38;;;32.70;99.90;;;;;;5095047;28;20020;-67
2023/08/01 07:26:11;;;;;;;17.60;9.85;;;32.70;99.90;;;;;;5094802;28;20131;-67
2023/08/01 07:28:38;;;;;;;16.52;10.80;;;32.70;99.90;;;;;;5095334;28;20386;-67
2023/08/01 07:31:06;;;;;;;39.70;28.92;;;32.70;99.90;;;;;;5095324;28;20381;-67
2023/08/01 07:33:34;;;;;;;23.88;11.75;;;32.70;99.90;;;;;;5095314;28;20354;-67
2023/08/01 07:36:01;;;;;;;331.65;275.40;;;32.70;99.90;;;;;;5094868;28;20031;-67
2023/08/01 07:38:28;;;;;;;23.13;14.85;;;32.70;99.90;;;;;;5094918;28;20020;-67
2023/08/01 07:40:55;;;;;;;47.80;34.47;;;32.70;99.90;;;;;;5085648;28;20079;-66
2023/08/01 07:43:23;;;;;;;24.27;13.57;;;32.60;99.90;;;;;;5077167;28;20024;-66
2023/08/01 07:45:50;;;;;;;21.17;10.35;;;32.60;99.90;;;;;;5084363;28;20028;-65
2023/08/01 07:48:17;;;;;;;16.08;9.68;;;32.60;99.90;;;;;;5084726;28;20031;-68
2023/08/01 07:50:43;;;;;;;124.05;99.22;;;32.60;99.90;;;;;;5082870;28;20017;-67
2023/08/01 07:53:10;;;;;;;22.13;12.48;;;32.60;99.90;;;;;;5084339;28;20044;-67
2023/08/01 07:55:37;;;;;;;16.88;9.05;;;32.50;99.90;;;;;;5088844;28;20376;-67
2023/08/01 07:58:04;;;;;;;14.68;9.25;;;32.50;99.90;;;;;;5084994;28;20077;-66
2023/08/01 08:00:30;;;;;;;88.45;67.40;;;32.40;99.90;;;;;;5083794;28;20016;-66
2023/08/01 08:02:57;;;;;;;23.67;13.10;;;32.50;99.90;;;;;;5085392;28;20074;-67
2023/08/01 08:05:24;;;;;;;360.27;306.27;;;32.50;99.90;;;;;;5086798;28;20477;-67
2023/08/01 08:07:51;;;;;;;310.52;244.77;;;32.40;99.90;;;;;;5083979;28;20453;-67
2023/08/01 08:10:17;;;;;;;414.35;343.20;;;32.50;99.90;;;;;;5084411;28;20096;-67
2023/08/01 08:12:44;;;;;;;34.20;22.13;;;32.40;99.90;;;;;;5082367;28;20017;-66
2023/08/01 08:15:10;;;;;;;28.38;17.35;;;32.30;99.90;;;;;;5083868;28;20031;-67
2023/08/01 08:17:37;;;;;;;36.17;18.55;;;32.30;99.90;;;;;;5084152;28;20086;-66
2023/08/01 08:20:06;;;;;;;29.83;16.10;;;32.30;99.90;;;;;;5082074;28;20174;-66
2023/08/01 08:22:32;;;;;;;26.60;14.90;;;32.30;99.90;;;;;;5083166;28;20384;-67
2023/08/01 08:24:59;;;;;;;25.75;13.70;;;32.40;99.90;;;;;;5084031;28;20019;-67
2023/08/01 08:27:25;;;;;;;22.63;9.55;;;32.40;99.90;;;;;;5094339;28;20040;-67
2023/08/01 08:29:52;;;;;;;19.95;9.45;;;32.50;99.90;;;;;;5094909;28;20031;-67
2023/08/01 08:32:19;;;;;;;22.88;12.32;;;32.50;99.90;;;;;;5094865;28;20107;-68
2023/08/01 08:34:45;;;;;;;36.35;17.67;;;32.50;99.90;;;;;;5094139;28;20421;-67
2023/08/01 08:37:12;;;;;;;29.55;17.73;;;32.60;99.90;;;;;;5094202;28;20359;-69
2023/08/01 08:39:38;;;;;;;50.20;35.78;;;32.70;99.90;;;;;;5094157;28;20024;-68
2023/08/01 08:42:05;;;;;;;28.92;19.27;;;32.60;99.90;;;;;;5094091;28;20024;-68
2023/08/01 08:44:35;;;;;;;32.60;20.38;;;32.70;99.90;;;;;;5093900;28;20016;-68
2023/08/01 08:47:04;;;;;;;29.67;16.95;;;32.70;99.90;;;;;;5093919;28;20133;-66
2023/08/01 08:49:32;;;;;;;36.10;16.45;;;32.60;99.90;;;;;;5093757;28;20017;-69
2023/08/01 08:51:58;;;;;;;24.95;14.23;;;32.70;99.90;;;;;;5094161;28;20391;-67
2023/08/01 08:54:25;;;;;;;20.13;13.38;;;32.80;99.90;;;;;;5093972;28;20046;-67
2023/08/01 08:56:52;;;;;;;28.92;14.60;;;32.70;99.90;;;;;;5093922;28;20024;-67
2023/08/01 08:59:19;;;;;;;27.15;13.55;;;32.70;99.90;;;;;;5093842;28;20031;-65
2023/08/01 09:01:46;;;;;;;25.02;12.10;;;32.70;99.90;;;;;;5093615;28;20525;-66
2023/08/01 09:04:13;;;;;;;22.85;13.45;;;32.60;99.90;;;;;;5089969;28;20020;-65
2023/08/01 09:06:48;;;;;;;45.42;34.10;;;32.50;99.90;;;;;;5073385;28;20020;-66
2023/08/01 09:09:15;;;;;;;225.32;195.30;;;32.50;99.90;;;;;;5082906;28;20020;-65
2023/08/01 09:11:45;;;;;;;320.70;274.95;;;32.40;99.90;;;;;;5093273;28;20024;-67
2023/08/01 09:14:12;;;;;;;28.35;15.80;;;32.40;99.90;;;;;;5093316;28;20119;-69
2023/08/01 09:16:40;;;;;;;29.15;15.98;;;32.40;99.90;;;;;;5086016;28;20358;-69
2023/08/01 09:19:07;;;;;;;28.40;15.38;;;32.40;99.90;;;;;;5073151;28;20099;-68
2023/08/01 09:21:35;;;;;;;151.48;126.70;;;32.30;99.90;;;;;;5073432;28;20067;-68
2023/08/01 09:24:14;;;;;;;151.82;126.95;;;32.30;99.90;;;;;;5073507;28;20025;-67
2023/08/01 09:26:41;;;;;;;160.88;77.80;;;32.10;99.90;;;;;;5073231;28;20083;-68
2023/08/01 09:29:08;;;;;;;58.05;31.42;;;32.20;99.90;;;;;;5073321;28;20078;-67
2023/08/01 09:31:40;;;;;;;215.43;140.10;;;32.10;99.90;;;;;;5073394;28;20021;-67
2023/08/01 09:34:21;;;;;;;453.17;300.00;;;32.10;99.90;;;;;;5073858;28;20064;-67
2023/08/01 09:36:48;;;;;;;498.55;310.23;;;32.10;99.90;;;;;;5084238;28;20041;-66
2023/08/01 09:39:19;;;;;;;201.75;126.30;;;32.10;99.90;;;;;;5075728;28;20035;-66
2023/08/01 09:41:46;;;;;;;938.88;735.67;;;32.10;99.90;;;;;;5079721;28;20067;-66
2023/08/01 09:44:15;;;;;;;1123.78;995.00;;;32.10;99.90;;;;;;5073619;28;20052;-67
2023/08/01 09:46:43;;;;;;;758.55;678.13;;;32.10;99.90;;;;;;5072555;28;20027;-65
2023/08/01 09:49:12;;;;;;;590.67;527.67;;;32.10;99.90;;;;;;5092741;28;20020;-65
2023/08/01 09:51:49;;;;;;;1047.72;931.65;;;32.00;99.90;;;;;;5093268;28;20028;-66
2023/08/01 09:54:16;;;;;;;455.77;406.95;;;32.00;99.90;;;;;;5093105;28;20043;-65
2023/08/01 09:56:48;;;;;;;32.70;15.48;;;31.90;99.90;;;;;;5092955;28;20028;-66
2023/08/01 09:59:22;;;;;;;265.88;232.10;;;31.90;99.90;;;;;;5092704;28;20024;-66
2023/08/01 10:01:51;;;;;;;61.30;32.17;;;31.90;99.90;;;;;;5092742;28;20035;-65
2023/08/01 10:04:21;;;;;;;28.23;14.57;;;31.90;99.90;;;;;;5083758;28;20032;-66
2023/08/01 10:06:55;;;;;;;29.13;13.15;;;31.90;99.90;;;;;;5072228;28;20020;-65
2023/08/01 10:09:22;;;;;;;52.05;27.02;;;31.80;99.90;;;;;;5083022;28;20032;-64
2023/08/01 10:11:51;;;;;;;567.00;491.60;;;31.80;99.90;;;;;;5084003;28;20024;-64
2023/08/01 10:14:20;;;;;;;37.83;21.25;;;31.90;99.90;;;;;;5081736;28;20047;-63
2023/08/01 10:16:47;;;;;;;908.28;798.35;;;31.80;99.90;;;;;;5083445;28;20039;-66
2023/08/01 10:19:14;;;;;;;539.55;480.30;;;31.70;99.90;;;;;;5081657;28;20022;-66
2023/08/01 10:21:42;;;;;;;601.10;536.20;;;31.70;99.90;;;;;;5083900;28;20033;-65
2023/08/01 10:24:09;;;;;;;1224.88;999.90;;;31.70;99.90;;;;;;5086262;28;20091;-67
2023/08/01 10:26:36;;;;;;;1603.47;999.90;;;31.70;99.90;;;;;;5085490;28;20028;-66
2023/08/01 10:29:03;;;;;;;1313.93;999.90;;;31.70;99.90;;;;;;5084618;28;20070;-64
2023/08/01 10:31:29;;;;;;;737.05;658.70;;;31.70;99.90;;;;;;5086952;28;20475;-66
2023/08/01 10:34:07;;;;;;;424.92;377.00;;;31.70;99.90;;;;;;5085627;28;20487;-65
2023/08/01 10:36:34;;;;;;;869.00;752.80;;;31.60;99.90;;;;;;5085100;28;20021;-65
2023/08/01 10:39:02;;;;;;;1102.95;979.63;;;31.60;99.90;;;;;;5085133;28;20560;-65
2023/08/01 10:41:31;;;;;;;1451.90;999.90;;;31.60;99.90;;;;;;5085737;28;20035;-65
2023/08/01 10:44:10;;;;;;;1172.03;999.90;;;31.50;99.90;;;;;;5089932;28;20051;-66
2023/08/01 10:46:59;;;;;;;412.67;367.50;;;31.50;99.90;;;;;;5085632;28;20540;-66
2023/08/01 10:49:45;;;;;;;666.67;596.25;;;31.50;99.90;;;;;;5084317;28;20082;-66
2023/08/01 10:52:24;;;;;;;1235.05;999.90;;;31.50;99.90;;;;;;5083060;28;20028;-65
2023/08/01 10:55:11;;;;;;;973.35;870.10;;;31.40;99.90;;;;;;5083089;28;20400;-67
2023/08/01 10:57:48;;;;;;;1279.28;999.90;;;31.30;99.90;;;;;;5085002;28;20040;-65
2023/08/01 11:00:19;;;;;;;1284.63;999.90;;;31.40;99.90;;;;;;5086166;28;20029;-65
2023/08/01 11:02:53;;;;;;;666.38;595.55;;;31.30;99.90;;;;;;5078393;28;20024;-67
2023/08/01 11:05:20;;;;;;;975.55;869.70;;;31.30;99.90;;;;;;5083572;28;20487;-65
2023/08/01 11:07:58;;;;;;;840.78;745.25;;;31.30;99.90;;;;;;5084015;28;20028;-66
2023/08/01 11:10:29;;;;;;;301.10;268.80;;;31.30;99.90;;;;;;5086154;28;20099;-67
2023/08/01 11:12:56;;;;;;;92.72;66.72;;;31.30;99.90;;;;;;5084131;28;20516;-66
2023/08/01 11:15:23;;;;;;;91.22;63.08;;;31.30;99.90;;;;;;5085936;28;20023;-66
2023/08/01 11:17:52;;;;;;;61.78;40.08;;;31.30;99.90;;;;;;5088203;28;20028;-65
2023/08/01 11:20:22;;;;;;;39.85;24.08;;;31.30;99.90;;;;;;5082401;28;20036;-66
2023/08/01 11:22:54;;;;;;;43.20;23.65;;;31.30;99.90;;;;;;5088891;28;20028;-65
2023/08/01 11:25:31;;;;;;;;;;;31.30;99.90;;;;;;5086135;28;20108;-65
2023/08/01 11:28:01;;;;;;;37.53;23.27;;;31.30;99.90;;;;;;5083680;28;19912;-64
2023/08/01 11:30:37;;;;;;;117.35;81.97;;;31.30;99.90;;;;;;5081525;28;20368;-65
2023/08/01 11:33:15;;;;;;;90.75;63.67;;;31.20;99.90;;;;;;5083699;28;20017;-69
2023/08/01 11:35:42;;;;;;;62.90;42.78;;;31.20;99.90;;;;;;5084849;28;20460;-66
2023/08/01 11:38:09;;;;;;;61.80;34.95;;;31.20;99.90;;;;;;5086017;28;20058;-66
2023/08/01 11:40:37;;;;;;;58.38;34.60;;;31.20;99.90;;;;;;5086062;28;20066;-66
2023/08/01 11:43:03;;;;;;;68.88;44.97;;;31.10;99.90;;;;;;5089555;28;20016;-64
2023/08/01 11:45:30;;;;;;;103.07;72.60;;;31.10;99.90;;;;;;5083268;28;20066;-65
2023/08/01 11:47:57;;;;;;;53.75;32.65;;;31.10;99.90;;;;;;5085182;28;20016;-66
2023/08/01 11:50:25;;;;;;;47.03;25.67;;;31.10;99.90;;;;;;5087391;28;20067;-70
2023/08/01 11:52:53;;;;;;;34.67;16.85;;;31.00;99.90;;;;;;5085442;28;20048;-65
2023/08/01 11:55:21;;;;;;;26.23;13.80;;;31.00;99.90;;;;;;5086473;28;20281;-65
2023/08/01 11:57:56;;;;;;;39.88;26.77;;;31.00;99.90;;;;;;5083092;28;20036;-65
2023/08/01 12:00:28;;;;;;;47.63;29.10;;;30.90;99.90;;;;;;5086531;28;20137;-64
2023/08/01 12:03:06;;;;;;;119.10;103.75;;;30.90;99.90;;;;;;5082064;28;20391;-67
2023/08/01 12:05:32;;;;;;;584.53;514.63;;;30.80;99.90;;;;;;5087694;28;20111;-67
2023/08/01 12:08:10;;;;;;;557.10;497.05;;;30.80;99.90;;;;;;5087891;28;20029;-67
2023/08/01 12:10:39;;;;;;;356.52;304.02;;;30.90;99.90;;;;;;5081449;28;20024;-68
2023/08/01 12:13:05;;;;;;;541.30;472.50;;;30.90;99.90;;;;;;5081837;28;20070;-68
2023/08/01 12:15:32;;;;;;;557.50;475.50;;;30.80;99.90;;;;;;5088153;28;20017;-65
2023/08/01 12:17:58;;;;;;;1019.67;884.75;;;30.80;99.90;;;;;;5086912;28;20024;-65
2023/08/01 12:20:25;;;;;;;717.85;620.42;;;30.80;99.90;;;;;;5087521;28;20024;-65
2023/08/01 12:22:51;;;;;;;1127.20;969.70;;;30.70;99.90;;;;;;5085241;28;20061;-66
2023/08/01 12:25:18;;;;;;;327.90;292.10;;;30.70;99.90;;;;;;5083532;28;20441;-64